createdAt,value
2023-02-15T00:00:11.824Z,102305.84
2023-02-15T00:02:40.766Z,102308.97
2023-02-15T00:05:09.313Z,102302.03
2023-02-15T00:07:37.212Z,102305.16
2023-02-15T00:10:05.873Z,102301.09
2023-02-15T00:12:33.946Z,102297.88
2023-02-15T00:15:01.800Z,102292.22
2023-02-15T00:17:30.456Z,102297.09
2023-02-15T00:19:58.279Z,102295.34
2023-02-15T00:22:27.133Z,102302.31
2023-02-15T00:24:54.975Z,102288.91
2023-02-15T00:27:22.917Z,102302.44
2023-02-15T00:29:50.874Z,102292.84
2023-02-15T00:32:18.716Z,102303.91
2023-02-15T00:34:46.489Z,102297.16
2023-02-15T00:37:14.374Z,102301.66
2023-02-15T00:39:42.306Z,102292.19
2023-02-15T00:42:10.266Z,102295.81
2023-02-15T00:44:38.215Z,102289.78
2023-02-15T00:47:06.177Z,102281.97
2023-02-15T00:49:34.025Z,102277.34
2023-02-15T00:52:02.913Z,102283.00
2023-02-15T00:54:30.885Z,102292.03
2023-02-15T00:56:58.886Z,102291.00
2023-02-15T00:59:26.906Z,102284.34
2023-02-15T01:01:54.860Z,102282.41
2023-02-15T01:04:22.812Z,102280.59
2023-02-15T01:06:51.128Z,102274.13
2023-02-15T01:09:19.099Z,102271.84
2023-02-15T01:11:48.200Z,102265.91
2023-02-15T01:14:16.210Z,102268.72
2023-02-15T01:16:44.048Z,102266.28
2023-02-15T01:19:12.031Z,102271.31
2023-02-15T01:21:42.042Z,102267.53
2023-02-15T01:24:15.427Z,102264.78
2023-02-15T01:26:43.422Z,102262.03
2023-02-15T01:29:11.353Z,102262.56
2023-02-15T01:31:40.545Z,102265.34
2023-02-15T01:34:08.630Z,102265.69
2023-02-15T01:36:37.073Z,102259.84
2023-02-15T01:39:05.171Z,102257.31
2023-02-15T01:41:34.020Z,102273.63
2023-02-15T01:44:04.064Z,102263.97
2023-02-15T01:46:44.187Z,102264.78
2023-02-15T01:49:17.903Z,102262.66
2023-02-15T01:51:48.311Z,102257.38
2023-02-15T01:54:27.406Z,102260.50
2023-02-15T01:57:00.929Z,102253.69
2023-02-15T01:59:29.307Z,102259.91
2023-02-15T02:02:00.827Z,102255.56
2023-02-15T02:04:52.101Z,102246.84
2023-02-15T02:07:23.703Z,102252.25
2023-02-15T02:09:51.815Z,102246.53
2023-02-15T02:12:22.607Z,102258.19
2023-02-15T02:14:52.706Z,102255.94
2023-02-15T02:17:28.126Z,102254.91
2023-02-15T02:20:29.910Z,102244.25
2023-02-15T02:23:33.364Z,102245.47
2023-02-15T02:26:10.248Z,102234.88
2023-02-15T02:28:43.985Z,102241.66
2023-02-15T02:31:30.617Z,102247.13
2023-02-15T02:34:18.391Z,102243.13
2023-02-15T02:37:24.567Z,102237.31
2023-02-15T02:40:01.877Z,102238.41
2023-02-15T02:42:51.683Z,102231.13
2023-02-15T02:45:44.815Z,102231.31
2023-02-15T02:48:21.046Z,102228.03
2023-02-15T02:50:50.720Z,102227.09
2023-02-15T02:53:18.568Z,102227.78
2023-02-15T02:56:00.134Z,102223.78
2023-02-15T02:58:36.378Z,102221.44
2023-02-15T03:01:13.119Z,102218.03
2023-02-15T03:03:48.006Z,102217.44
2023-02-15T03:06:30.351Z,102199.66
2023-02-15T03:09:25.149Z,102193.69
2023-02-15T03:11:53.068Z,102203.56
2023-02-15T03:14:22.817Z,102210.34
2023-02-15T03:16:52.997Z,102200.00
2023-02-15T03:19:28.760Z,102196.31
2023-02-15T03:22:10.456Z,102186.41
2023-02-15T03:24:54.592Z,102190.66
2023-02-15T03:27:28.891Z,102193.91
2023-02-15T03:30:00.022Z,102186.56
2023-02-15T03:32:30.865Z,102178.75
2023-02-15T03:34:58.872Z,102182.69
2023-02-15T03:37:40.332Z,102182.75
2023-02-15T03:40:45.852Z,102174.84
2023-02-15T03:43:35.800Z,102176.75
2023-02-15T03:46:19.233Z,102174.19
2023-02-15T03:49:07.359Z,102174.84
2023-02-15T03:51:40.602Z,102173.88
2023-02-15T03:54:38.902Z,102162.22
2023-02-15T03:57:58.372Z,102179.16
2023-02-15T04:00:44.929Z,102162.88
2023-02-15T04:03:48.090Z,102167.19
2023-02-15T04:06:16.035Z,102175.09
2023-02-15T04:09:02.341Z,102167.50
2023-02-15T04:11:30.221Z,102172.97
2023-02-15T04:13:58.158Z,102165.09
2023-02-15T04:16:26.978Z,102171.19
2023-02-15T04:19:13.959Z,102166.59
2023-02-15T04:22:00.486Z,102175.09
2023-02-15T04:24:46.828Z,102162.53
2023-02-15T04:27:15.721Z,102166.06
2023-02-15T04:29:44.260Z,102162.47
2023-02-15T04:32:12.234Z,102165.75
2023-02-15T04:34:40.205Z,102160.78
2023-02-15T04:37:08.097Z,102169.00
2023-02-15T04:39:36.029Z,102163.75
2023-02-15T04:42:03.985Z,102168.00
2023-02-15T04:44:31.783Z,102172.31
2023-02-15T04:46:59.664Z,102169.88
2023-02-15T04:49:27.533Z,102165.06
2023-02-15T04:51:55.419Z,102171.53
2023-02-15T04:54:23.339Z,102177.63
2023-02-15T04:56:51.241Z,102176.06
2023-02-15T04:59:19.074Z,102179.56
2023-02-15T05:01:46.877Z,102175.00
2023-02-15T05:04:14.905Z,102169.09
2023-02-15T05:06:42.777Z,102168.00
2023-02-15T05:09:12.625Z,102173.88
2023-02-15T05:11:40.504Z,102168.09
2023-02-15T05:14:08.866Z,102169.09
2023-02-15T05:16:36.726Z,102169.94
2023-02-15T05:19:05.058Z,102161.84
2023-02-15T05:21:34.062Z,102162.84
2023-02-15T05:24:01.904Z,102170.63
2023-02-15T05:26:48.247Z,102164.50
2023-02-15T05:29:16.128Z,102167.19
2023-02-15T05:31:48.726Z,102174.66
2023-02-15T05:34:16.620Z,102171.44
2023-02-15T05:36:44.490Z,102174.13
2023-02-15T05:39:12.370Z,102174.75
2023-02-15T05:41:40.273Z,102175.97
2023-02-15T05:44:08.100Z,102171.59
2023-02-15T05:46:35.996Z,102176.88
2023-02-15T05:49:04.185Z,102182.81
2023-02-15T05:51:32.085Z,102179.59
2023-02-15T05:53:59.960Z,102187.06
2023-02-15T05:56:27.839Z,102181.28
2023-02-15T05:58:56.071Z,102186.34
2023-02-15T06:01:24.186Z,102188.28
2023-02-15T06:03:53.297Z,102179.47
2023-02-15T06:06:21.206Z,102183.63
2023-02-15T06:08:49.386Z,102194.34
2023-02-15T06:11:17.347Z,102191.31
2023-02-15T06:13:45.230Z,102202.16
2023-02-15T06:16:13.090Z,102205.47
2023-02-15T06:18:40.986Z,102208.13
2023-02-15T06:21:08.859Z,102201.31
2023-02-15T06:23:36.728Z,102211.25
2023-02-15T06:26:04.888Z,102213.47
2023-02-15T06:28:32.835Z,102215.72
2023-02-15T06:31:00.793Z,102216.59
2023-02-15T06:33:28.808Z,102215.63
2023-02-15T06:35:56.641Z,102222.31
2023-02-15T06:38:24.463Z,102220.41
2023-02-15T06:40:52.331Z,102219.31
2023-02-15T06:43:20.181Z,102227.16
2023-02-15T06:45:48.171Z,102223.16
2023-02-15T06:48:16.211Z,102229.97
2023-02-15T06:50:44.275Z,102230.56
2023-02-15T06:53:12.182Z,102227.94
2023-02-15T06:55:40.051Z,102211.25
2023-02-15T06:58:07.935Z,102220.44
2023-02-15T07:00:35.779Z,102219.78
2023-02-15T07:03:04.098Z,102217.72
2023-02-15T07:05:35.226Z,102225.09
2023-02-15T07:08:03.400Z,102225.56
2023-02-15T07:10:31.410Z,102223.25
2023-02-15T07:12:59.355Z,102226.09
2023-02-15T07:15:27.358Z,102226.75
2023-02-15T07:17:55.222Z,102226.03
2023-02-15T07:20:24.637Z,102229.16
2023-02-15T07:22:53.056Z,102230.06
2023-02-15T07:25:21.365Z,102218.53
2023-02-15T07:27:49.213Z,102226.22
2023-02-15T07:30:18.416Z,102227.44
2023-02-15T07:33:05.859Z,102226.41
2023-02-15T07:35:35.047Z,102213.41
2023-02-15T07:38:02.942Z,102209.47
2023-02-15T07:40:30.957Z,102217.97
2023-02-15T07:43:00.351Z,102222.97
2023-02-15T07:45:28.396Z,102222.00
2023-02-15T07:47:56.484Z,102232.75
2023-02-15T07:50:24.526Z,102228.63
2023-02-15T07:52:52.455Z,102224.72
2023-02-15T07:55:20.744Z,102228.72
2023-02-15T07:57:51.175Z,102228.34
2023-02-15T08:00:24.686Z,102234.00
2023-02-15T08:03:13.695Z,102220.66
2023-02-15T08:05:44.383Z,102221.06
2023-02-15T08:08:31.823Z,102219.28
2023-02-15T08:11:21.858Z,102199.66
2023-02-15T08:13:57.693Z,102216.03
2023-02-15T08:16:36.250Z,102211.31
2023-02-15T08:19:08.351Z,102205.03
2023-02-15T08:21:39.132Z,102211.63
2023-02-15T08:24:09.753Z,102205.94
2023-02-15T08:26:41.785Z,102211.09
2023-02-15T08:29:11.435Z,102213.75
2023-02-15T08:31:42.185Z,102204.81
2023-02-15T08:34:12.770Z,102215.66
2023-02-15T08:36:40.973Z,102206.25
2023-02-15T08:39:09.218Z,102221.81
2023-02-15T08:42:02.640Z,102222.28
2023-02-15T08:44:30.802Z,102215.28
2023-02-15T08:47:03.938Z,102218.06
2023-02-15T08:49:32.679Z,102218.13
2023-02-15T08:52:00.936Z,102209.88
2023-02-15T08:54:28.915Z,102214.34
2023-02-15T08:56:56.836Z,102206.97
2023-02-15T08:59:26.672Z,102206.59
2023-02-15T09:01:55.174Z,102212.59
2023-02-15T09:04:23.776Z,102209.53
2023-02-15T09:06:52.598Z,102209.81
2023-02-15T09:09:21.221Z,102210.19
2023-02-15T09:11:56.788Z,102212.69
2023-02-15T09:14:27.874Z,102210.22
2023-02-15T09:16:56.504Z,102199.56
2023-02-15T09:19:25.178Z,102201.72
2023-02-15T09:21:53.365Z,102202.28
2023-02-15T09:24:21.382Z,102204.22
2023-02-15T09:26:49.964Z,102202.25
2023-02-15T09:29:19.227Z,102206.16
2023-02-15T09:31:50.176Z,102203.22
2023-02-15T09:34:21.124Z,102200.75
2023-02-15T09:36:50.127Z,102205.59
2023-02-15T09:39:21.091Z,102211.00
2023-02-15T09:41:55.204Z,102208.84
2023-02-15T09:44:42.166Z,102201.88
2023-02-15T09:47:47.434Z,102205.06
2023-02-15T09:50:35.093Z,102188.88
2023-02-15T09:53:25.900Z,102197.16
2023-02-15T09:56:15.396Z,102197.03
2023-02-15T09:58:52.420Z,102195.09
2023-02-15T10:01:44.285Z,102191.31
2023-02-15T10:04:36.850Z,102189.47
2023-02-15T10:07:29.434Z,102182.47
2023-02-15T10:10:16.411Z,102182.19
2023-02-15T10:13:12.500Z,102183.00
2023-02-15T10:15:59.897Z,102180.94
2023-02-15T10:18:33.742Z,102181.66
2023-02-15T10:21:13.512Z,102182.97
2023-02-15T10:23:56.471Z,102178.38
2023-02-15T10:26:37.274Z,102178.03
2023-02-15T10:29:29.560Z,102169.53
2023-02-15T10:32:06.815Z,102171.53
2023-02-15T10:34:43.570Z,102168.41
2023-02-15T10:37:18.442Z,102164.75
2023-02-15T10:40:07.877Z,102159.56
2023-02-15T10:42:41.736Z,102153.44
2023-02-15T10:45:25.269Z,102150.44
2023-02-15T10:48:14.413Z,102150.13
2023-02-15T10:50:48.202Z,102151.06
2023-02-15T10:53:45.190Z,102151.22
2023-02-15T10:56:29.977Z,102146.06
2023-02-15T10:59:27.382Z,102137.72
2023-02-15T11:02:02.361Z,102133.28
2023-02-15T11:04:48.704Z,102125.38
2023-02-15T11:07:28.060Z,102123.13
2023-02-15T11:10:06.325Z,102121.44
2023-02-15T11:12:34.819Z,102117.69
2023-02-15T11:15:16.882Z,102105.47
2023-02-15T11:17:52.273Z,102104.50
2023-02-15T11:20:25.822Z,102088.34
2023-02-15T11:22:54.960Z,102094.06
2023-02-15T11:25:31.715Z,102090.94
2023-02-15T11:28:01.108Z,102075.47
2023-02-15T11:30:52.879Z,102072.09
2023-02-15T11:33:30.416Z,102078.47
2023-02-15T11:36:10.081Z,102070.78
2023-02-15T11:38:44.466Z,102065.72
2023-02-15T11:41:21.132Z,102053.53
2023-02-15T11:44:02.237Z,102058.34
2023-02-15T11:46:30.232Z,102058.47
2023-02-15T11:48:59.578Z,102049.94
2023-02-15T11:51:29.958Z,102045.38
2023-02-15T11:53:58.048Z,102046.50
2023-02-15T11:56:27.709Z,102035.16
2023-02-15T11:58:59.097Z,102038.13
2023-02-15T12:01:43.774Z,102040.75
2023-02-15T12:04:25.941Z,102032.81
2023-02-15T12:07:03.120Z,102025.53
2023-02-15T12:09:39.930Z,102027.19
2023-02-15T12:12:31.772Z,102028.00
2023-02-15T12:15:05.602Z,102026.44
2023-02-15T12:17:53.469Z,102022.91
2023-02-15T12:20:21.375Z,102029.44
2023-02-15T12:23:14.737Z,102025.63
2023-02-15T12:25:55.565Z,102019.91
2023-02-15T12:28:41.057Z,102016.00
2023-02-15T12:31:42.464Z,102015.94
2023-02-15T12:34:40.835Z,102019.91
2023-02-15T12:37:20.179Z,102019.59
2023-02-15T12:39:57.983Z,102010.88
2023-02-15T12:42:27.792Z,102012.13
2023-02-15T12:45:05.141Z,101999.38
2023-02-15T12:47:33.676Z,102001.88
2023-02-15T12:50:34.589Z,102001.00
2023-02-15T12:53:24.860Z,101991.03
2023-02-15T12:55:58.319Z,101983.47
2023-02-15T12:58:28.278Z,101977.81
2023-02-15T13:01:26.960Z,101972.41
2023-02-15T13:04:05.600Z,101964.63
2023-02-15T13:06:36.626Z,101959.03
2023-02-15T13:09:13.463Z,101946.38
2023-02-15T13:11:45.098Z,101948.81
2023-02-15T13:14:33.876Z,101956.34
2023-02-15T13:17:07.082Z,101942.72
2023-02-15T13:19:51.815Z,101935.19
2023-02-15T13:22:49.170Z,101939.00
2023-02-15T13:25:26.513Z,101936.50
2023-02-15T13:27:58.537Z,101935.13
2023-02-15T13:30:33.773Z,101931.75
2023-02-15T13:33:07.912Z,101933.56
2023-02-15T13:35:51.505Z,101921.63
2023-02-15T13:38:38.876Z,101923.84
2023-02-15T13:41:14.623Z,101922.34
2023-02-15T13:43:47.916Z,101915.41
2023-02-15T13:46:30.854Z,101922.00
2023-02-15T13:49:18.072Z,101923.25
2023-02-15T13:52:05.668Z,101925.56
2023-02-15T13:55:11.871Z,101921.41
2023-02-15T13:58:13.574Z,101912.34
2023-02-15T14:00:47.125Z,101915.31
2023-02-15T14:03:52.723Z,101909.88
2023-02-15T14:06:50.796Z,101916.75
2023-02-15T14:09:29.436Z,101921.66
2023-02-15T14:12:09.338Z,101906.81
2023-02-15T14:15:03.255Z,101916.31
2023-02-15T14:17:46.409Z,101917.66
2023-02-15T14:20:45.425Z,101919.88
2023-02-15T14:23:31.181Z,101912.16
2023-02-15T14:26:15.366Z,101918.63
2023-02-15T14:29:13.807Z,101920.22
2023-02-15T14:31:50.713Z,101924.81
2023-02-15T14:34:43.975Z,101923.47
2023-02-15T14:37:15.413Z,101924.59
2023-02-15T14:40:16.137Z,101917.84
2023-02-15T14:42:49.334Z,101910.75
2023-02-15T14:45:44.848Z,101916.31
2023-02-15T14:48:31.179Z,101915.09
2023-02-15T14:50:59.143Z,101913.22
2023-02-15T14:53:33.132Z,101917.72
2023-02-15T14:56:11.098Z,101912.81
2023-02-15T14:58:39.469Z,101911.19
2023-02-15T15:01:29.929Z,101915.16
2023-02-15T15:04:23.152Z,101918.47
2023-02-15T15:07:03.502Z,101909.38
2023-02-15T15:09:35.172Z,101906.81
2023-02-15T15:12:35.324Z,101911.41
2023-02-15T15:15:05.260Z,101917.13
2023-02-15T15:17:33.570Z,101918.19
2023-02-15T15:20:02.734Z,101918.44
2023-02-15T15:22:34.291Z,101908.56
2023-02-15T15:25:11.905Z,101912.50
2023-02-15T15:27:44.794Z,101911.50
2023-02-15T15:30:15.372Z,101918.34
2023-02-15T15:32:55.595Z,101910.50
2023-02-15T15:35:45.140Z,101912.16
2023-02-15T15:38:31.345Z,101911.22
2023-02-15T15:41:25.516Z,101917.13
2023-02-15T15:44:22.582Z,101912.16
2023-02-15T15:47:07.442Z,101917.38
2023-02-15T15:49:39.294Z,101918.50
2023-02-15T15:52:16.779Z,101909.13
2023-02-15T15:54:48.414Z,101910.28
2023-02-15T15:57:46.958Z,101916.63
2023-02-15T16:00:39.502Z,101908.44
2023-02-15T16:03:14.946Z,101908.41
2023-02-15T16:05:42.987Z,101909.94
2023-02-15T16:08:10.867Z,101910.53
2023-02-15T16:10:39.130Z,101911.88
2023-02-15T16:13:08.330Z,101914.31
2023-02-15T16:15:45.878Z,101914.16
2023-02-15T16:18:18.335Z,101919.25
2023-02-15T16:21:04.638Z,101928.81
2023-02-15T16:23:41.023Z,101919.25
2023-02-15T16:26:20.071Z,101930.75
2023-02-15T16:28:52.856Z,101924.44
2023-02-15T16:31:23.914Z,101927.25
2023-02-15T16:33:56.685Z,101936.06
2023-02-15T16:36:25.950Z,101941.81
2023-02-15T16:38:53.745Z,101939.34
2023-02-15T16:41:34.326Z,101943.78
2023-02-15T16:44:08.725Z,101947.56
2023-02-15T16:46:44.025Z,101955.81
2023-02-15T16:49:20.785Z,101960.50
2023-02-15T16:52:06.824Z,101954.25
2023-02-15T16:54:36.442Z,101955.63
2023-02-15T16:57:04.565Z,101966.84
2023-02-15T16:59:44.522Z,101972.00
2023-02-15T17:02:49.429Z,101973.59
2023-02-15T17:05:16.903Z,101980.44
2023-02-15T17:08:05.684Z,101980.31
2023-02-15T17:10:38.226Z,101979.75
2023-02-15T17:13:15.033Z,101986.94
2023-02-15T17:16:02.206Z,101991.97
2023-02-15T17:18:48.506Z,101990.50
2023-02-15T17:21:22.409Z,101992.00
2023-02-15T17:23:53.879Z,101990.94
2023-02-15T17:26:29.860Z,101984.38
2023-02-15T17:29:12.425Z,101989.63
2023-02-15T17:31:41.924Z,101988.59
2023-02-15T17:34:49.451Z,101990.97
2023-02-15T17:37:37.838Z,101993.69
2023-02-15T17:40:33.682Z,101996.13
2023-02-15T17:43:01.901Z,101987.72
2023-02-15T17:45:41.569Z,101994.22
2023-02-15T17:48:31.951Z,101995.00
2023-02-15T17:51:03.150Z,101997.72
2023-02-15T17:53:31.518Z,101995.84
2023-02-15T17:55:59.605Z,102004.13
2023-02-15T17:58:27.577Z,102009.34
2023-02-15T18:01:17.594Z,102011.81
2023-02-15T18:04:10.359Z,102008.88
2023-02-15T18:07:00.346Z,102005.41
2023-02-15T18:09:47.193Z,102003.66
2023-02-15T18:12:23.936Z,102015.06
2023-02-15T18:14:54.438Z,102007.16
2023-02-15T18:17:30.085Z,102014.09
2023-02-15T18:19:58.053Z,102015.06
2023-02-15T18:22:29.114Z,102012.75
2023-02-15T18:24:57.035Z,102022.22
2023-02-15T18:27:24.934Z,102019.50
2023-02-15T18:29:52.809Z,102025.34
2023-02-15T18:32:32.890Z,102033.34
2023-02-15T18:35:03.813Z,102024.25
2023-02-15T18:37:33.627Z,102030.78
2023-02-15T18:40:04.410Z,102021.47
2023-02-15T18:42:35.376Z,102027.47
2023-02-15T18:45:16.556Z,102028.97
2023-02-15T18:47:46.225Z,102026.09
2023-02-15T18:50:16.473Z,102025.53
2023-02-15T18:52:47.538Z,102023.94
2023-02-15T18:55:18.494Z,102022.56
2023-02-15T18:57:48.883Z,102023.84
2023-02-15T19:00:28.528Z,102022.03
2023-02-15T19:02:57.540Z,102027.03
2023-02-15T19:05:30.217Z,102027.16
2023-02-15T19:08:00.156Z,102019.47
2023-02-15T19:10:30.621Z,102021.19
2023-02-15T19:12:58.854Z,102021.81
2023-02-15T19:15:30.659Z,102030.44
2023-02-15T19:17:58.800Z,102023.59
2023-02-15T19:20:39.937Z,102033.31
2023-02-15T19:23:15.737Z,102020.69
2023-02-15T19:25:43.685Z,102027.53
2023-02-15T19:28:29.832Z,102023.66
2023-02-15T19:30:57.986Z,102027.53
2023-02-15T19:33:26.147Z,102027.47
2023-02-15T19:35:58.178Z,102028.16
2023-02-15T19:38:32.006Z,102016.06
2023-02-15T19:41:08.240Z,102016.59
2023-02-15T19:43:36.743Z,102019.41
2023-02-15T19:46:05.962Z,102029.78
2023-02-15T19:48:34.805Z,102035.53
2023-02-15T19:51:04.800Z,102034.72
2023-02-15T19:53:34.244Z,102035.47
2023-02-15T19:56:04.247Z,102031.19
2023-02-15T19:58:34.929Z,102033.38
2023-02-15T20:01:04.282Z,102037.09
2023-02-15T20:03:34.687Z,102033.97
2023-02-15T20:06:04.382Z,102048.91
2023-02-15T20:08:33.356Z,102037.94
2023-02-15T20:11:02.381Z,102038.69
2023-02-15T20:13:31.427Z,102033.78
2023-02-15T20:16:02.583Z,102039.84
2023-02-15T20:18:31.803Z,102035.66
2023-02-15T20:21:02.859Z,102045.00
2023-02-15T20:23:38.416Z,102040.44
2023-02-15T20:26:19.514Z,102044.16
2023-02-15T20:28:51.058Z,102049.44
2023-02-15T20:31:21.773Z,102046.00
2023-02-15T20:33:51.265Z,102057.88
2023-02-15T20:36:22.434Z,102049.75
2023-02-15T20:38:52.317Z,102050.59
2023-02-15T20:41:37.002Z,102055.53
2023-02-15T20:44:26.565Z,102054.16
2023-02-15T20:46:57.301Z,102060.44
2023-02-15T20:49:27.087Z,102062.22
2023-02-15T20:51:56.352Z,102065.47
2023-02-15T20:54:26.902Z,102058.97
2023-02-15T20:56:54.650Z,102062.91
2023-02-15T20:59:32.159Z,102062.66
2023-02-15T21:02:21.141Z,102062.38
2023-02-15T21:04:48.938Z,102066.63
2023-02-15T21:07:18.955Z,102063.09
2023-02-15T21:09:47.058Z,102070.81
2023-02-15T21:12:17.289Z,102063.94
2023-02-15T21:14:45.681Z,102066.09
2023-02-15T21:17:16.252Z,102070.47
2023-02-15T21:19:44.098Z,102069.28
2023-02-15T21:22:14.563Z,102061.91
2023-02-15T21:24:51.201Z,102062.94
2023-02-15T21:27:19.166Z,102072.09
2023-02-15T21:29:46.872Z,102062.72
2023-02-15T21:32:14.707Z,102069.78
2023-02-15T21:34:42.497Z,102069.28
2023-02-15T21:37:30.530Z,102066.44
2023-02-15T21:39:58.486Z,102069.09
2023-02-15T21:42:46.802Z,102065.16
2023-02-15T21:45:37.635Z,102066.63
2023-02-15T21:48:05.513Z,102064.97
2023-02-15T21:50:54.393Z,102062.53
2023-02-15T21:53:33.569Z,102058.44
2023-02-15T21:56:03.842Z,102066.50
2023-02-15T21:58:35.836Z,102066.31
2023-02-15T22:01:05.938Z,102068.44
2023-02-15T22:03:36.443Z,102061.88
2023-02-15T22:06:04.702Z,102073.88
2023-02-15T22:08:33.224Z,102070.00
2023-02-15T22:11:01.096Z,102059.88
2023-02-15T22:13:32.357Z,102059.59
2023-02-15T22:16:00.228Z,102069.09
2023-02-15T22:18:33.973Z,102073.06
2023-02-15T22:21:03.901Z,102065.38
2023-02-15T22:23:32.392Z,102079.41
2023-02-15T22:26:05.450Z,102079.22
2023-02-15T22:28:51.749Z,102059.31
2023-02-15T22:31:21.707Z,102067.22
2023-02-15T22:33:52.528Z,102068.47
2023-02-15T22:36:30.170Z,102076.16
2023-02-15T22:38:58.505Z,102057.84
2023-02-15T22:41:29.435Z,102062.50
2023-02-15T22:43:57.909Z,102071.81
2023-02-15T22:46:26.745Z,102067.69
2023-02-15T22:48:54.630Z,102069.09
2023-02-15T22:51:24.145Z,102069.88
2023-02-15T22:53:52.504Z,102067.84
2023-02-15T22:56:38.880Z,102064.19
2023-02-15T22:59:16.202Z,102077.88
2023-02-15T23:01:44.017Z,102071.28
2023-02-15T23:04:20.938Z,102070.81
2023-02-15T23:06:49.147Z,102080.69
2023-02-15T23:09:17.049Z,102069.44
2023-02-15T23:11:46.189Z,102081.44
2023-02-15T23:14:35.246Z,102075.91
2023-02-15T23:17:03.145Z,102070.84
2023-02-15T23:19:30.834Z,102079.56
2023-02-15T23:21:58.590Z,102079.28
2023-02-15T23:24:31.601Z,102085.19
2023-02-15T23:27:19.294Z,102084.41
2023-02-15T23:29:47.117Z,102076.81
2023-02-15T23:32:15.726Z,102072.59
2023-02-15T23:34:43.581Z,102081.41
2023-02-15T23:37:13.485Z,102070.34
2023-02-15T23:39:59.804Z,102068.00
2023-02-15T23:42:33.845Z,102063.63
2023-02-15T23:45:02.434Z,102064.09
2023-02-15T23:47:53.715Z,102053.59
2023-02-15T23:50:29.496Z,102061.63
2023-02-15T23:52:57.594Z,102072.69
2023-02-15T23:55:37.551Z,102061.63
2023-02-15T23:58:17.038Z,102070.25
